WS98 weather

St Joseph's Hospital Heliport
Marshfield, Wisconsin, United States

Public forecast

Using degrees Fahrenheit for public forecast. Weather courtesy of forecast.io.

Closest aviation weather report (METAR) to St Joseph's Hospital Heliport

Closest report is Marshfield Municipal Airport, 2.5 nm (4.5 km) S. Retrieved 2020/02/22 00:54 UTC (19 minutes ago):

KMFI 220054Z AUTO 24010KT 10SM CLR M01/M07 A3009 RMK AO2 SLP215 T10061067

Closest aviation forecast (TAF) to St Joseph's Hospital Heliport

Closest forecast is Central Wisconsin Airport, 22.7 nm (42.0 km) ENE. Retrieved 2020-02-22 00:27 UTC (46 minutes ago):

TAF KCWA 212325Z 2200/2224 24012G20KT P6SM SKC WS020/26040KT FM220400 24008KT P6SM SKC WS016/27035KT FM220700 24006KT P6SM SKC AMD LTD TO CLD VIS AND WIND 2204/2212